createdAt,value
2022-11-12T05:15:58.424Z,1.65
2022-11-12T05:18:43.950Z,1.62
2022-11-12T05:21:48.598Z,1.72
2022-11-12T05:24:42.412Z,1.69
2022-11-12T05:27:28.010Z,1.67
2022-11-12T05:30:13.871Z,1.48
2022-11-12T05:32:58.900Z,1.61
2022-11-12T05:35:43.935Z,1.48
2022-11-12T05:38:29.277Z,1.57
2022-11-12T05:41:19.807Z,1.62
2022-11-12T05:44:05.765Z,1.59
2022-11-12T05:46:50.971Z,1.55
2022-11-12T05:49:36.214Z,1.58
2022-11-12T05:52:21.684Z,1.57
2022-11-12T05:55:12.287Z,1.51
2022-11-12T05:57:57.461Z,1.51
2022-11-12T06:00:42.778Z,1.60
2022-11-12T06:03:28.266Z,1.58
2022-11-12T06:06:13.321Z,1.61
2022-11-12T06:08:58.516Z,1.65
2022-11-12T06:11:43.492Z,1.60
2022-11-12T06:14:28.588Z,1.61
2022-11-12T06:17:13.578Z,1.62
2022-11-12T06:20:02.687Z,1.62
2022-11-12T06:22:48.324Z,1.42
2022-11-12T06:25:34.102Z,1.60
2022-11-12T06:28:19.343Z,1.56
2022-11-12T06:31:05.091Z,1.58
2022-11-12T06:33:50.807Z,1.63
2022-11-12T06:36:36.263Z,1.61
2022-11-12T06:39:21.421Z,1.48
2022-11-12T06:42:06.856Z,1.55
2022-11-12T06:44:52.046Z,1.58
2022-11-12T06:47:37.555Z,1.65
2022-11-12T06:50:22.773Z,1.62
2022-11-12T06:53:07.747Z,1.78
2022-11-12T06:55:53.205Z,1.81
2022-11-12T06:59:04.465Z,1.86
2022-11-12T07:01:53.889Z,1.76
2022-11-12T07:04:39.422Z,1.86
2022-11-12T07:07:25.402Z,1.85
2022-11-12T07:10:15.467Z,1.84
2022-11-12T07:13:00.823Z,1.84
2022-11-12T07:15:46.096Z,1.80
2022-11-12T07:18:32.069Z,1.72
2022-11-12T07:21:19.865Z,1.84
2022-11-12T07:24:05.408Z,1.91
2022-11-12T07:26:50.519Z,1.92
2022-11-12T07:29:47.516Z,1.96
2022-11-12T07:32:36.277Z,1.91
2022-11-12T07:35:25.348Z,2.09
2022-11-12T07:38:10.669Z,2.08
2022-11-12T07:41:07.465Z,2.22
2022-11-12T07:43:53.940Z,2.26
2022-11-12T07:46:40.075Z,2.23
2022-11-12T07:49:27.502Z,2.26
2022-11-12T07:52:12.641Z,2.32
2022-11-12T07:54:57.765Z,2.30
2022-11-12T07:57:43.007Z,2.39
2022-11-12T08:00:30.901Z,2.38
2022-11-12T08:03:45.730Z,2.63
2022-11-12T08:06:31.550Z,2.65
2022-11-12T08:09:16.796Z,2.72
2022-11-12T08:12:09.594Z,2.74
2022-11-12T08:14:54.945Z,2.67
2022-11-12T08:17:40.225Z,2.79
2022-11-12T08:20:27.691Z,2.77
2022-11-12T08:23:12.501Z,2.89
2022-11-12T08:26:05.174Z,2.98
2022-11-12T08:28:52.583Z,2.95
2022-11-12T08:31:40.082Z,2.96
2022-11-12T08:34:25.697Z,3.16
2022-11-12T08:37:10.790Z,3.15
2022-11-12T08:39:56.025Z,3.26
2022-11-12T08:42:41.283Z,3.27
2022-11-12T08:45:27.719Z,3.30
2022-11-12T08:48:14.892Z,3.27
2022-11-12T08:51:06.672Z,3.15
2022-11-12T08:53:51.948Z,3.30
2022-11-12T08:56:38.468Z,3.20
2022-11-12T08:59:23.752Z,3.31
2022-11-12T09:02:13.873Z,3.38
2022-11-12T09:04:58.903Z,3.38
2022-11-12T09:07:49.785Z,3.45
2022-11-12T09:10:37.150Z,3.39
2022-11-12T09:13:22.465Z,3.42
2022-11-12T09:16:09.521Z,3.48
2022-11-12T09:18:55.147Z,3.31
2022-11-12T09:21:40.408Z,3.43
2022-11-12T09:24:25.468Z,3.51
2022-11-12T09:27:10.655Z,3.54
2022-11-12T09:29:55.912Z,3.62
2022-11-12T09:32:41.434Z,3.71
2022-11-12T09:35:30.170Z,3.57
2022-11-12T09:38:15.745Z,3.64
2022-11-12T09:41:22.387Z,3.56
2022-11-12T09:44:14.385Z,3.31
2022-11-12T09:47:04.801Z,3.46
2022-11-12T09:49:59.861Z,3.42
2022-11-12T09:52:47.594Z,3.37
2022-11-12T09:55:42.757Z,3.29
2022-11-12T09:58:28.486Z,3.32
2022-11-12T10:01:55.843Z,3.45
2022-11-12T10:05:15.161Z,3.43
2022-11-12T10:08:26.671Z,3.53
2022-11-12T10:11:27.258Z,3.55
2022-11-12T10:14:27.859Z,3.68
2022-11-12T10:17:37.150Z,3.71
2022-11-12T10:20:42.053Z,3.70
2022-11-12T10:23:41.833Z,3.85
2022-11-12T10:26:28.548Z,3.91
2022-11-12T10:29:57.544Z,4.04
2022-11-12T10:32:45.808Z,3.86
2022-11-12T10:35:31.061Z,3.93
2022-11-12T10:38:22.940Z,3.95
2022-11-12T10:41:30.809Z,4.01
2022-11-12T10:44:26.171Z,4.04
2022-11-12T10:47:32.323Z,4.07
2022-11-12T10:50:31.746Z,4.12
2022-11-12T10:53:31.637Z,3.99
2022-11-12T10:56:31.777Z,4.14
2022-11-12T10:59:20.955Z,4.10
2022-11-12T11:02:19.013Z,4.12
2022-11-12T11:05:31.090Z,4.24
2022-11-12T11:08:36.298Z,4.22
2022-11-12T11:11:27.641Z,4.23
2022-11-12T11:14:29.735Z,4.35
2022-11-12T11:17:18.929Z,4.33
2022-11-12T11:20:19.560Z,4.39
2022-11-12T11:23:20.303Z,4.29
2022-11-12T11:26:46.423Z,4.39
2022-11-12T11:29:56.659Z,4.33
2022-11-12T11:32:55.351Z,4.49
2022-11-12T11:35:47.552Z,4.51
2022-11-12T11:38:39.096Z,4.57
2022-11-12T11:41:33.133Z,4.61
2022-11-12T11:44:51.651Z,4.63
2022-11-12T11:48:02.277Z,4.71
2022-11-12T11:50:59.865Z,4.71
2022-11-12T11:54:03.959Z,4.82
2022-11-12T11:56:51.858Z,4.48
2022-11-12T12:00:07.086Z,4.59
2022-11-12T12:03:17.522Z,4.70
2022-11-12T12:06:46.675Z,4.50
2022-11-12T12:09:40.083Z,4.74
2022-11-12T12:12:43.546Z,4.75
2022-11-12T12:16:10.869Z,4.66
2022-11-12T12:19:13.658Z,4.65
2022-11-12T12:22:07.772Z,4.75
2022-11-12T12:24:59.057Z,4.58
2022-11-12T12:27:53.848Z,4.66
2022-11-12T12:30:44.814Z,4.61
2022-11-12T12:33:37.590Z,4.79
2022-11-12T12:36:38.158Z,4.82
2022-11-12T12:39:35.925Z,4.79
2022-11-12T12:42:38.201Z,4.82
2022-11-12T12:45:52.964Z,4.94
2022-11-12T12:48:42.261Z,5.13
2022-11-12T12:51:33.545Z,5.09
2022-11-12T12:54:36.989Z,5.00
2022-11-12T12:57:39.678Z,4.96
2022-11-12T13:00:40.979Z,5.08
2022-11-12T13:03:42.636Z,5.18
2022-11-12T13:06:30.034Z,5.33
2022-11-12T13:09:14.867Z,5.23
2022-11-12T13:12:06.070Z,5.35
2022-11-12T13:15:07.205Z,5.35
2022-11-12T13:17:52.847Z,5.49
2022-11-12T13:20:40.352Z,5.62
2022-11-12T13:24:04.079Z,5.71
2022-11-12T13:26:52.421Z,5.78
2022-11-12T13:29:37.581Z,5.68
2022-11-12T13:32:53.738Z,5.83
2022-11-12T13:35:39.804Z,5.65
2022-11-12T13:38:26.213Z,5.73
2022-11-12T13:41:18.086Z,5.91
2022-11-12T13:44:12.347Z,5.92
2022-11-12T13:46:57.503Z,5.79
2022-11-12T13:49:45.832Z,5.82
2022-11-12T13:52:31.719Z,5.79
2022-11-12T13:55:22.867Z,5.81
2022-11-12T13:58:20.584Z,5.86
2022-11-12T14:01:07.969Z,5.94
2022-11-12T14:03:53.360Z,6.00
2022-11-12T14:06:42.575Z,5.98
2022-11-12T14:09:46.037Z,5.99
2022-11-12T14:12:34.419Z,5.95
2022-11-12T14:15:51.717Z,5.89
2022-11-12T14:18:45.101Z,5.91
2022-11-12T14:21:30.103Z,5.90
2022-11-12T14:24:15.288Z,5.90
2022-11-12T14:27:00.652Z,5.88
2022-11-12T14:29:46.231Z,5.78
2022-11-12T14:32:38.838Z,5.80
2022-11-12T14:35:31.168Z,5.77
2022-11-12T14:38:28.233Z,5.73
2022-11-12T14:41:24.045Z,5.62
2022-11-12T14:44:24.627Z,5.61
2022-11-12T14:47:10.098Z,5.64
2022-11-12T14:49:55.818Z,5.63
2022-11-12T14:52:44.211Z,5.46
2022-11-12T14:55:37.140Z,5.46
2022-11-12T14:58:25.203Z,5.45
2022-11-12T15:04:38.518Z,5.30
2022-11-12T15:07:35.464Z,5.10
2022-11-12T15:10:34.633Z,5.06
2022-11-12T15:13:24.265Z,5.05
2022-11-12T15:16:11.854Z,4.98
2022-11-12T15:19:06.693Z,5.00
2022-11-12T15:22:01.230Z,4.98
2022-11-12T15:24:49.549Z,4.80
2022-11-12T15:27:39.580Z,4.74
2022-11-12T15:30:26.331Z,4.58
2022-11-12T15:33:11.514Z,4.45
2022-11-12T15:35:59.903Z,4.37
2022-11-12T15:38:51.258Z,4.34
2022-11-12T15:41:36.479Z,4.36
2022-11-12T15:44:21.610Z,4.36
2022-11-12T15:47:13.357Z,4.29
2022-11-12T15:49:59.121Z,4.32
2022-11-12T15:52:44.573Z,4.23
2022-11-12T15:55:29.683Z,4.18
2022-11-12T15:58:30.527Z,4.22
2022-11-12T16:01:16.021Z,4.08
2022-11-12T16:04:01.447Z,4.01
2022-11-12T16:06:46.666Z,3.99
2022-11-12T16:09:31.761Z,4.00
2022-11-12T16:12:16.978Z,3.98
2022-11-12T16:15:02.311Z,3.98
2022-11-12T16:17:48.177Z,3.99
2022-11-12T16:20:35.138Z,4.00
2022-11-12T16:23:20.399Z,4.02
2022-11-12T16:26:08.616Z,3.99
2022-11-12T16:28:53.659Z,3.92
2022-11-12T16:31:41.520Z,3.84
2022-11-12T16:34:26.560Z,3.84
2022-11-12T16:37:13.013Z,3.87
2022-11-12T16:40:12.498Z,3.94
2022-11-12T16:42:59.765Z,3.82
2022-11-12T16:45:47.934Z,3.79
2022-11-12T16:48:43.847Z,3.78
2022-11-12T16:51:31.902Z,3.85
2022-11-12T16:54:16.997Z,3.76
2022-11-12T16:57:01.873Z,3.73
2022-11-12T16:59:46.978Z,3.67
2022-11-12T17:02:32.132Z,3.57
2022-11-12T17:05:20.575Z,3.68
2022-11-12T17:08:06.032Z,3.63
2022-11-12T17:10:51.174Z,3.74
2022-11-12T17:13:38.578Z,3.68
2022-11-12T17:16:24.034Z,3.78
2022-11-12T17:19:10.424Z,3.74
2022-11-12T17:21:55.554Z,3.58
2022-11-12T17:24:41.006Z,3.65
2022-11-12T17:27:26.356Z,3.57
2022-11-12T17:30:12.016Z,3.52
2022-11-12T17:32:59.378Z,3.44
2022-11-12T17:35:44.598Z,3.35
2022-11-12T17:38:30.594Z,3.27
2022-11-12T17:41:16.117Z,3.32
2022-11-12T17:44:02.412Z,3.33
2022-11-12T17:46:48.397Z,3.34
2022-11-12T17:49:33.449Z,3.37
2022-11-12T17:52:18.621Z,3.30
2022-11-12T17:55:04.218Z,3.41
2022-11-12T17:57:49.561Z,3.36
2022-11-12T18:00:39.086Z,3.33
2022-11-12T18:03:24.476Z,3.43
2022-11-12T18:06:14.674Z,3.43
2022-11-12T18:09:02.268Z,3.41
2022-11-12T18:11:58.866Z,3.45
2022-11-12T18:14:43.984Z,3.47
2022-11-12T18:17:28.836Z,3.52
2022-11-12T18:20:13.878Z,3.53
2022-11-12T18:22:58.984Z,3.58
2022-11-12T18:25:46.808Z,3.48
2022-11-12T18:28:32.756Z,3.49
2022-11-12T18:31:18.234Z,3.36
2022-11-12T18:34:03.648Z,3.45
2022-11-12T18:36:48.539Z,3.43
2022-11-12T18:39:33.852Z,3.43
2022-11-12T18:42:19.959Z,3.35
2022-11-12T18:45:05.260Z,3.38
2022-11-12T18:47:51.164Z,3.31
2022-11-12T18:50:35.998Z,3.28
2022-11-12T18:53:21.016Z,3.17
2022-11-12T18:56:12.281Z,3.16
2022-11-12T18:58:57.226Z,3.23
2022-11-12T19:01:42.195Z,3.18
2022-11-12T19:04:27.081Z,3.22
2022-11-12T19:07:12.323Z,3.23
2022-11-12T19:09:57.664Z,3.12
2022-11-12T19:12:42.785Z,3.13
2022-11-12T19:15:27.753Z,3.02
2022-11-12T19:18:14.004Z,3.08
2022-11-12T19:21:05.352Z,3.19
2022-11-12T19:23:54.618Z,3.03
2022-11-12T19:26:40.212Z,3.03
2022-11-12T19:29:25.276Z,3.06
2022-11-12T19:32:10.467Z,3.06
2022-11-12T19:34:55.717Z,2.98
2022-11-12T19:37:41.358Z,3.05
2022-11-12T19:40:26.400Z,3.01
2022-11-12T19:43:11.508Z,3.02
2022-11-12T19:45:56.737Z,3.03
2022-11-12T19:48:42.573Z,3.00
2022-11-12T19:51:34.754Z,2.81
2022-11-12T19:54:20.259Z,2.65
2022-11-12T19:57:05.813Z,2.60
2022-11-12T19:59:50.855Z,2.71
2022-11-12T20:02:36.257Z,2.71
2022-11-12T20:05:21.557Z,2.66
2022-11-12T20:08:09.707Z,2.74
2022-11-12T20:10:55.451Z,2.79
2022-11-12T20:13:40.426Z,2.82
2022-11-12T20:16:26.027Z,2.77
2022-11-12T20:19:11.261Z,2.65
2022-11-12T20:21:56.431Z,2.66
2022-11-12T20:24:41.782Z,2.50
2022-11-12T20:27:26.759Z,2.44
2022-11-12T20:30:12.594Z,2.44
2022-11-12T20:32:57.701Z,2.45
2022-11-12T20:35:42.579Z,2.37
2022-11-12T20:38:28.167Z,2.40
2022-11-12T20:41:16.157Z,2.45
2022-11-12T20:44:02.537Z,2.41
2022-11-12T20:46:47.736Z,2.21
2022-11-12T20:49:32.811Z,2.34
2022-11-12T20:52:18.556Z,2.14
2022-11-12T20:55:03.841Z,2.20
2022-11-12T20:57:49.177Z,2.15
2022-11-12T21:00:34.104Z,2.24
2022-11-12T21:03:19.201Z,2.24
2022-11-12T21:06:06.548Z,2.33
2022-11-12T21:08:52.121Z,2.21
2022-11-12T21:11:36.994Z,2.25
2022-11-12T21:14:21.902Z,2.29
2022-11-12T21:17:07.135Z,2.24
2022-11-12T21:19:53.362Z,2.31
2022-11-12T21:22:38.239Z,2.15
2022-11-12T21:25:23.699Z,2.24
2022-11-12T21:28:08.557Z,2.31
2022-11-12T21:30:53.520Z,2.12
2022-11-12T21:33:38.704Z,2.11
2022-11-12T21:36:26.115Z,2.15
2022-11-12T21:39:11.980Z,2.15
2022-11-12T21:41:57.048Z,2.15
2022-11-12T21:44:42.167Z,2.13
2022-11-12T21:47:27.291Z,2.04
2022-11-12T21:50:12.374Z,1.95
2022-11-12T21:52:57.663Z,1.99
2022-11-12T21:55:42.947Z,1.92
2022-11-12T21:58:29.585Z,1.95
2022-11-12T22:01:21.117Z,1.89
2022-11-12T22:04:07.850Z,1.96
2022-11-12T22:06:53.108Z,1.84
2022-11-12T22:09:38.043Z,1.84
2022-11-12T22:12:22.949Z,1.86
2022-11-12T22:15:08.277Z,1.84
2022-11-12T22:17:53.228Z,1.84
2022-11-12T22:20:38.238Z,1.82
2022-11-12T22:23:23.229Z,1.86
2022-11-12T22:26:11.659Z,1.85
2022-11-12T22:28:58.636Z,1.87
2022-11-12T22:31:43.467Z,1.87
2022-11-12T22:34:28.337Z,1.79
2022-11-12T22:37:13.207Z,1.80
2022-11-12T22:39:58.159Z,1.84
2022-11-12T22:42:43.098Z,1.83
2022-11-12T22:45:28.155Z,1.83
2022-11-12T22:48:13.059Z,1.80
2022-11-12T22:51:00.027Z,1.77
2022-11-12T22:53:45.248Z,1.79
2022-11-12T22:56:33.239Z,1.78
2022-11-12T22:59:18.065Z,1.72
